Interlaken, New York
Current Conditions -  °F | °C
As of 9:56 AM on Saturday 20 Dec 2014 (Local Time) from KITH Reporting Station
Overcast Overcast  
Wind Chill: 20°   Ceiling: 1700
Heat Index: 27°   Visibility: 10mi
Dew Point: 23°   Wind: 7mph
Humidity: 84%   Direction: 320°NW
Pressure: 30.27"   Gusts: NA
Location:  42.62°N, 76.72°W
Report Text: KITH 201456Z 32006KT 10SM OVC017 M03/M05 A3027 RMK AO2 53004 60000 T10271050 SLP266
Loading
Personal Weather Stations






























Interactive Weather Map New forecast layout! Learn more

10-Day Weather Forecast

Advertisements
Track Severe Weather on mobile